createdAt,value
2016-06-13T00:00:52.047Z,23.29
2016-06-13T00:01:52.019Z,23.34
2016-06-13T00:02:51.865Z,23.38
2016-06-13T00:03:51.837Z,23.34
2016-06-13T00:04:51.966Z,23.27
2016-06-13T00:05:52.109Z,23.26
2016-06-13T00:06:52.081Z,23.32
2016-06-13T00:07:51.911Z,23.29
2016-06-13T00:08:51.884Z,23.26
2016-06-13T00:09:51.856Z,23.26
2016-06-13T00:10:51.843Z,23.26
2016-06-13T00:11:52.065Z,23.26
2016-06-13T00:12:51.803Z,23.27
2016-06-13T00:13:51.789Z,23.29
2016-06-13T00:14:51.777Z,23.29
2016-06-13T00:15:51.749Z,23.27
2016-06-13T00:16:51.753Z,23.31
2016-06-13T00:17:51.709Z,23.29
2016-06-13T00:18:51.695Z,23.29
2016-06-13T00:19:51.668Z,23.32
2016-06-13T00:20:51.655Z,23.29
2016-06-13T00:21:51.705Z,23.24
2016-06-13T00:22:51.614Z,23.29
2016-06-13T00:23:51.587Z,23.26
2016-06-13T00:24:51.589Z,23.31
2016-06-13T00:25:51.623Z,23.24
2016-06-13T00:26:51.548Z,23.29
2016-06-13T00:27:51.504Z,23.24
2016-06-13T00:28:51.180Z,23.29
2016-06-13T00:29:51.479Z,23.31
2016-06-13T00:30:51.451Z,23.27
2016-06-13T00:31:51.439Z,23.29
2016-06-13T00:32:51.411Z,23.34
2016-06-13T00:33:51.398Z,23.15
2016-06-13T00:34:51.370Z,23.26
2016-06-13T00:35:51.357Z,23.26
2016-06-13T00:36:51.329Z,23.27
2016-06-13T00:37:51.317Z,23.29
2016-06-13T00:38:51.288Z,23.2
2016-06-13T00:39:51.120Z,23.32
2016-06-13T00:40:51.185Z,23.29
2016-06-13T00:41:51.235Z,23.29
2016-06-13T00:42:51.208Z,23.27
2016-06-13T00:43:51.195Z,23.29
2016-06-13T00:44:51.181Z,23.29
2016-06-13T00:45:51.154Z,23.29
2016-06-13T00:46:51.140Z,23.27
2016-06-13T00:47:51.129Z,23.23
2016-06-13T00:48:51.101Z,23.24
2016-06-13T00:49:51.104Z,23.19
2016-06-13T00:50:51.060Z,23.29
2016-06-13T00:51:51.047Z,23.17
2016-06-13T00:52:51.034Z,23.19
2016-06-13T00:53:50.992Z,23.32
2016-06-13T00:54:50.978Z,23.29
2016-06-13T00:55:50.966Z,23.17
2016-06-13T00:56:50.954Z,23.26
2016-06-13T00:57:50.910Z,23.26
2016-06-13T00:58:50.897Z,23.26
2016-06-13T00:59:50.728Z,23.29
2016-06-13T01:00:50.872Z,23.23
2016-06-13T01:01:50.875Z,23.31
2016-06-13T01:02:50.815Z,23.29
2016-06-13T01:03:50.803Z,23.27
2016-06-13T01:04:50.807Z,23.29
2016-06-13T01:05:50.793Z,23.27
2016-06-13T01:06:50.749Z,23.26
2016-06-13T01:07:50.722Z,23.2
2016-06-13T01:08:50.708Z,23.27
2016-06-13T01:09:50.696Z,23.22
2016-06-13T01:10:50.886Z,23.29
2016-06-13T01:11:50.922Z,23.19
2016-06-13T01:12:50.690Z,23.29
2016-06-13T01:13:50.458Z,23.29
2016-06-13T01:14:50.727Z,23.22
2016-06-13T01:15:50.277Z,23.32
2016-06-13T01:16:50.546Z,23.27
2016-06-13T01:17:50.377Z,23.29
2016-06-13T01:18:50.505Z,23.19
2016-06-13T01:19:50.492Z,23.27
2016-06-13T01:20:50.480Z,23.31
2016-06-13T01:21:50.296Z,23.2
2016-06-13T01:22:50.440Z,23.23
2016-06-13T01:23:50.411Z,23.2
2016-06-13T01:24:50.398Z,23.15
2016-06-13T01:25:51.026Z,23.22
2016-06-13T01:26:50.374Z,23.22
2016-06-13T01:27:50.330Z,23.22
2016-06-13T01:28:50.161Z,23.2
2016-06-13T01:29:50.289Z,23.2
2016-06-13T01:30:50.276Z,23.22
2016-06-13T01:31:50.248Z,23.24
2016-06-13T01:32:50.236Z,23.23
2016-06-13T01:33:50.224Z,23.22
2016-06-13T01:34:50.195Z,23.22
2016-06-13T01:35:50.182Z,23.19
2016-06-13T01:36:50.155Z,23.2
2016-06-13T01:37:50.142Z,23.2
2016-06-13T01:38:50.114Z,23.19
2016-06-13T01:39:50.100Z,23.14
2016-06-13T01:40:50.245Z,23.22
2016-06-13T01:41:50.076Z,23.17
2016-06-13T01:42:50.032Z,23.17
2016-06-13T01:43:50.020Z,23.23
2016-06-13T01:44:49.992Z,23.14
2016-06-13T01:45:49.994Z,23.15
2016-06-13T01:46:49.966Z,23.19
2016-06-13T01:47:49.953Z,23.14
2016-06-13T01:48:49.925Z,23.12
2016-06-13T01:49:49.898Z,23.17
2016-06-13T01:50:49.884Z,23.15
2016-06-13T01:51:49.872Z,23.2
2016-06-13T01:52:49.843Z,23.23
2016-06-13T01:53:49.660Z,23.12
2016-06-13T01:54:49.849Z,23.22
2016-06-13T01:55:49.900Z,23.08
2016-06-13T01:56:49.763Z,23.09
2016-06-13T01:57:49.750Z,23.19
2016-06-13T01:58:49.737Z,23.07
2016-06-13T01:59:49.709Z,23.11
2016-06-13T02:00:49.682Z,23.14
2016-06-13T02:01:49.653Z,23.22
2016-06-13T02:02:49.656Z,23.17
2016-06-13T02:03:49.628Z,23.08
2016-06-13T02:04:49.615Z,23.22
2016-06-13T02:05:49.588Z,23.09
2016-06-13T02:06:49.575Z,23.07
2016-06-13T02:07:49.546Z,23.09
2016-06-13T02:08:49.534Z,23.11
2016-06-13T02:09:49.506Z,23.09
2016-06-13T02:10:49.806Z,23.12
2016-06-13T02:11:49.590Z,23.14
2016-06-13T02:12:49.452Z,23.19
2016-06-13T02:13:49.440Z,23.11
2016-06-13T02:14:49.412Z,23.12
2016-06-13T02:15:49.383Z,23.17
2016-06-13T02:16:49.371Z,23.08
2016-06-13T02:17:49.202Z,23.11
2016-06-13T02:18:49.331Z,23.09
2016-06-13T02:19:49.318Z,23.12
2016-06-13T02:20:49.290Z,23.12
2016-06-13T02:21:49.277Z,23.12
2016-06-13T02:22:49.265Z,23.11
2016-06-13T02:23:49.236Z,23.08
2016-06-13T02:24:49.208Z,23.11
2016-06-13T02:25:49.195Z,23.11
2016-06-13T02:26:49.167Z,23.09
2016-06-13T02:27:49.170Z,23.07
2016-06-13T02:28:49.143Z,23.2
2016-06-13T02:29:49.145Z,23.2
2016-06-13T02:30:49.086Z,23.17
2016-06-13T02:31:49.074Z,23.19
2016-06-13T02:32:49.061Z,23.15
2016-06-13T02:33:49.048Z,23.19
2016-06-13T02:34:49.020Z,23.15
2016-06-13T02:35:48.992Z,23.11
2016-06-13T02:36:48.964Z,23.12
2016-06-13T02:37:48.967Z,23.19
2016-06-13T02:38:48.939Z,23.2
2016-06-13T02:39:48.926Z,23.15
2016-06-13T02:40:48.991Z,23.19
2016-06-13T02:41:49.276Z,23.2
2016-06-13T02:42:48.873Z,23.19
2016-06-13T02:43:48.845Z,23.27
2016-06-13T02:44:48.832Z,23.22
2016-06-13T02:45:48.789Z,23.19
2016-06-13T02:46:48.776Z,23.19
2016-06-13T02:47:48.748Z,23.19
2016-06-13T02:48:48.750Z,23.32
2016-06-13T02:49:48.722Z,23.23
2016-06-13T02:50:48.710Z,23.2
2016-06-13T02:51:48.682Z,23.24
2016-06-13T02:52:48.669Z,23.19
2016-06-13T02:53:48.672Z,23.29
2016-06-13T02:54:48.676Z,23.31
2016-06-13T02:55:48.600Z,23.29
2016-06-13T02:56:48.712Z,23.26
2016-06-13T02:57:48.576Z,23.27
2016-06-13T02:58:48.547Z,23.27
2016-06-13T02:59:48.519Z,23.35
2016-06-13T03:00:48.506Z,23.32
2016-06-13T03:01:48.478Z,23.35
2016-06-13T03:02:48.466Z,23.24
2016-06-13T03:03:48.453Z,23.27
2016-06-13T03:04:48.425Z,23.27
2016-06-13T03:05:48.412Z,23.26
2016-06-13T03:06:48.400Z,23.35
2016-06-13T03:07:48.372Z,23.31
2016-06-13T03:08:48.359Z,23.27
2016-06-13T03:09:48.174Z,23.34
2016-06-13T03:10:48.319Z,23.34
2016-06-13T03:11:48.322Z,23.34
2016-06-13T03:12:48.277Z,23.35
2016-06-13T03:13:48.250Z,23.4
2016-06-13T03:14:48.237Z,23.35
2016-06-13T03:15:48.208Z,23.42
2016-06-13T03:16:48.196Z,23.4
2016-06-13T03:17:48.168Z,23.38
2016-06-13T03:18:48.155Z,23.4
2016-06-13T03:19:48.143Z,23.4
2016-06-13T03:20:48.115Z,23.38
2016-06-13T03:21:48.102Z,23.38
2016-06-13T03:22:48.074Z,23.42
2016-06-13T03:23:48.061Z,23.46
2016-06-13T03:24:47.877Z,23.35
2016-06-13T03:25:47.864Z,23.42
2016-06-13T03:26:48.061Z,23.47
2016-06-13T03:27:48.058Z,23.39
2016-06-13T03:28:48.054Z,23.42
2016-06-13T03:29:48.082Z,23.46
2016-06-13T03:30:48.094Z,23.52
2016-06-13T03:31:48.108Z,23.46
2016-06-13T03:32:48.093Z,23.42
2016-06-13T03:33:48.111Z,23.49
2016-06-13T03:34:48.097Z,23.39
2016-06-13T03:35:47.927Z,23.46
2016-06-13T03:36:48.064Z,23.46
2016-06-13T03:37:48.057Z,23.5
2016-06-13T03:38:48.066Z,23.47
2016-06-13T03:39:48.027Z,23.43
2016-06-13T03:40:48.036Z,23.47
2016-06-13T03:41:48.698Z,23.46
2016-06-13T03:42:47.984Z,23.49
2016-06-13T03:43:47.958Z,23.49
2016-06-13T03:44:47.948Z,23.47
2016-06-13T03:45:47.937Z,23.49
2016-06-13T03:46:47.926Z,23.43
2016-06-13T03:47:47.899Z,23.52
2016-06-13T03:48:47.871Z,23.47
2016-06-13T03:49:47.859Z,23.49
2016-06-13T03:50:47.676Z,23.49
2016-06-13T03:51:47.820Z,23.49
2016-06-13T03:52:47.791Z,23.49
2016-06-13T03:53:47.795Z,23.49
2016-06-13T03:54:47.766Z,23.52
2016-06-13T03:55:47.739Z,23.57
2016-06-13T03:56:47.726Z,23.5
2016-06-13T03:57:47.745Z,23.53
2016-06-13T03:58:47.685Z,23.5
2016-06-13T03:59:47.688Z,23.47
2016-06-13T04:00:47.644Z,23.5
2016-06-13T04:01:47.616Z,23.5
2016-06-13T04:02:47.448Z,23.46
2016-06-13T04:03:47.575Z,23.5
2016-06-13T04:04:47.563Z,23.57
2016-06-13T04:05:47.534Z,23.47
2016-06-13T04:06:47.523Z,23.5
2016-06-13T04:07:47.510Z,23.47
2016-06-13T04:08:47.481Z,23.49
2016-06-13T04:09:47.469Z,23.52
2016-06-13T04:10:47.456Z,23.6
2016-06-13T04:11:47.538Z,23.49
2016-06-13T04:12:47.400Z,23.49
2016-06-13T04:13:47.387Z,23.49
2016-06-13T04:14:47.359Z,23.5
2016-06-13T04:15:47.347Z,23.61
2016-06-13T04:16:47.334Z,23.58
2016-06-13T04:17:47.306Z,23.53
2016-06-13T04:18:47.388Z,23.49
2016-06-13T04:19:47.406Z,23.52
2016-06-13T04:20:47.408Z,23.5
2016-06-13T04:21:47.396Z,23.57
2016-06-13T04:22:47.305Z,23.53
2016-06-13T04:23:47.309Z,23.57
2016-06-13T04:24:47.374Z,23.52
2016-06-13T04:25:47.330Z,23.52
2016-06-13T04:26:47.740Z,23.47
2016-06-13T04:27:47.180Z,23.5
2016-06-13T04:28:47.261Z,23.46
2016-06-13T04:29:47.311Z,23.55
2016-06-13T04:30:47.268Z,23.53
2016-06-13T04:31:47.208Z,23.46
2016-06-13T04:32:47.005Z,23.61
2016-06-13T04:33:47.230Z,23.58
2016-06-13T04:34:46.995Z,23.58
2016-06-13T04:35:47.123Z,23.6
2016-06-13T04:36:47.143Z,23.57
2016-06-13T04:37:46.910Z,23.57
2016-06-13T04:38:46.743Z,23.46
2016-06-13T04:39:46.886Z,23.61
2016-06-13T04:40:46.858Z,23.57
2016-06-13T04:41:47.486Z,23.58
2016-06-13T04:42:46.833Z,23.58
2016-06-13T04:43:46.789Z,23.5
2016-06-13T04:44:46.777Z,23.58
2016-06-13T04:45:46.764Z,23.6
2016-06-13T04:46:46.751Z,23.47
2016-06-13T04:47:46.724Z,23.57
2016-06-13T04:48:46.694Z,23.55
2016-06-13T04:49:46.838Z,23.57
2016-06-13T04:50:46.669Z,23.57
2016-06-13T04:51:46.642Z,23.57
2016-06-13T04:52:46.629Z,23.6
2016-06-13T04:53:46.632Z,23.6
2016-06-13T04:54:46.573Z,23.6
2016-06-13T04:55:46.576Z,23.64
2016-06-13T04:56:46.594Z,23.53
2016-06-13T04:57:46.942Z,23.61
2016-06-13T04:58:46.851Z,23.61
2016-06-13T04:59:46.557Z,23.62
2016-06-13T05:00:46.513Z,23.57
2016-06-13T05:01:46.470Z,23.61
2016-06-13T05:02:46.426Z,23.64
2016-06-13T05:03:46.445Z,23.64
2016-06-13T05:04:46.401Z,23.58
2016-06-13T05:05:46.356Z,23.64
2016-06-13T05:06:46.266Z,23.58
2016-06-13T05:07:46.441Z,23.61
2016-06-13T05:08:46.319Z,23.6
2016-06-13T05:09:46.697Z,23.55
2016-06-13T05:10:46.325Z,23.61
2016-06-13T05:11:46.437Z,23.65
2016-06-13T05:12:46.612Z,23.62
2016-06-13T05:13:46.412Z,23.61
2016-06-13T05:14:46.369Z,23.64
2016-06-13T05:15:46.388Z,23.62
2016-06-13T05:16:46.202Z,23.6
2016-06-13T05:17:46.488Z,23.62
2016-06-13T05:18:46.241Z,23.6
2016-06-13T05:19:46.181Z,23.58
2016-06-13T05:20:46.075Z,23.58
2016-06-13T05:21:46.062Z,23.6
2016-06-13T05:22:46.034Z,23.55
2016-06-13T05:23:46.037Z,23.55
2016-06-13T05:24:45.899Z,23.6
2016-06-13T05:25:45.824Z,23.61
2016-06-13T05:26:46.703Z,23.58
2016-06-13T05:27:46.050Z,23.6
2016-06-13T05:28:46.646Z,23.55
2016-06-13T05:29:46.055Z,23.6
2016-06-13T05:30:46.246Z,23.68
2016-06-13T05:31:45.906Z,23.65
2016-06-13T05:32:45.955Z,23.64
2016-06-13T05:33:45.818Z,23.64
2016-06-13T05:34:45.805Z,23.58
2016-06-13T05:35:45.777Z,23.62
2016-06-13T05:36:45.764Z,23.68
2016-06-13T05:37:45.736Z,23.65
2016-06-13T05:38:45.723Z,23.71
2016-06-13T05:39:45.711Z,23.58
2016-06-13T05:40:45.808Z,23.61
2016-06-13T05:41:45.670Z,23.68
2016-06-13T05:42:45.580Z,23.61
2016-06-13T05:43:45.630Z,23.68
2016-06-13T05:44:45.649Z,23.61
2016-06-13T05:45:45.636Z,23.58
2016-06-13T05:46:45.670Z,23.68
2016-06-13T05:47:45.548Z,23.6
2016-06-13T05:48:45.520Z,23.65
2016-06-13T05:49:45.523Z,23.64
2016-06-13T05:50:45.495Z,23.65
2016-06-13T05:51:45.467Z,23.68
2016-06-13T05:52:45.454Z,23.68
2016-06-13T05:53:45.426Z,23.64
2016-06-13T05:54:45.320Z,23.67
2016-06-13T05:55:45.573Z,23.71
2016-06-13T05:56:45.450Z,23.62
2016-06-13T05:57:45.407Z,23.67
2016-06-13T05:58:45.332Z,23.64
2016-06-13T05:59:45.335Z,23.65
2016-06-13T06:00:45.291Z,23.71
2016-06-13T06:01:45.356Z,23.61
2016-06-13T06:02:45.360Z,23.67
2016-06-13T06:03:45.238Z,23.68
2016-06-13T06:04:45.210Z,23.65
2016-06-13T06:05:45.213Z,23.64
2016-06-13T06:06:45.326Z,23.61
2016-06-13T06:07:45.266Z,23.6
2016-06-13T06:08:45.144Z,23.68
2016-06-13T06:09:45.412Z,23.64
2016-06-13T06:10:45.291Z,23.64
2016-06-13T06:11:45.138Z,23.68
2016-06-13T06:12:45.062Z,23.7
2016-06-13T06:13:45.128Z,23.7
2016-06-13T06:14:45.100Z,23.67
2016-06-13T06:15:45.025Z,23.7
2016-06-13T06:16:45.012Z,23.61
2016-06-13T06:17:45.343Z,23.68
2016-06-13T06:18:44.846Z,23.71
2016-06-13T06:19:44.943Z,23.61
2016-06-13T06:20:44.962Z,23.67
2016-06-13T06:21:45.074Z,23.62
2016-06-13T06:22:45.015Z,23.61
2016-06-13T06:23:44.847Z,23.68
2016-06-13T06:24:44.834Z,23.7
2016-06-13T06:25:44.836Z,23.67
2016-06-13T06:26:44.840Z,23.72
2016-06-13T06:27:44.953Z,23.71
2016-06-13T06:28:44.752Z,23.64
2016-06-13T06:29:44.755Z,23.67
2016-06-13T06:30:44.727Z,23.67
2016-06-13T06:31:44.824Z,23.67
2016-06-13T06:32:44.905Z,23.67
2016-06-13T06:33:44.877Z,23.67
2016-06-13T06:34:44.756Z,23.68
2016-06-13T06:35:44.353Z,23.61
2016-06-13T06:36:44.434Z,23.7
2016-06-13T06:37:44.670Z,23.64
2016-06-13T06:38:44.564Z,23.61
2016-06-13T06:39:44.521Z,23.65
2016-06-13T06:40:44.508Z,23.62
2016-06-13T06:41:44.511Z,23.62
2016-06-13T06:42:45.030Z,23.64
2016-06-13T06:43:44.564Z,23.68
2016-06-13T06:44:44.473Z,23.65
2016-06-13T06:45:44.508Z,23.62
2016-06-13T06:46:44.464Z,23.61
2016-06-13T06:47:44.733Z,23.61
2016-06-13T06:48:44.470Z,23.62
2016-06-13T06:49:44.380Z,23.65
2016-06-13T06:50:44.319Z,23.6
2016-06-13T06:51:44.292Z,23.6
2016-06-13T06:52:44.280Z,23.6
2016-06-13T06:53:44.392Z,23.61
2016-06-13T06:54:44.239Z,23.64
2016-06-13T06:55:44.538Z,23.58
2016-06-13T06:56:44.057Z,23.58
2016-06-13T06:57:44.388Z,23.58
2016-06-13T06:58:44.188Z,23.58
2016-06-13T06:59:44.144Z,23.61
2016-06-13T07:00:44.054Z,23.64
2016-06-13T07:01:44.104Z,23.53
2016-06-13T07:02:44.247Z,23.58
2016-06-13T07:03:44.266Z,23.52
2016-06-13T07:04:44.082Z,23.5
2016-06-13T07:05:44.023Z,23.58
2016-06-13T07:06:44.010Z,23.46
2016-06-13T07:07:44.029Z,23.47
2016-06-13T07:08:44.125Z,23.46
2016-06-13T07:09:43.941Z,23.49
2016-06-13T07:10:44.100Z,23.46
2016-06-13T07:11:44.228Z,23.46
2016-06-13T07:12:44.356Z,23.46
2016-06-13T07:13:43.875Z,23.45
2016-06-13T07:14:44.051Z,23.45
2016-06-13T07:15:43.850Z,23.45
2016-06-13T07:16:44.150Z,23.4
2016-06-13T07:17:44.169Z,23.38
2016-06-13T07:18:43.938Z,23.35
2016-06-13T07:19:44.003Z,23.4
2016-06-13T07:20:43.818Z,23.38
2016-06-13T07:21:43.853Z,23.34
2016-06-13T07:22:43.918Z,23.39
2016-06-13T07:23:43.625Z,23.4
2016-06-13T07:24:43.487Z,23.32
2016-06-13T07:25:43.663Z,23.34
2016-06-13T07:26:43.899Z,23.35
2016-06-13T07:27:43.980Z,23.31
2016-06-13T07:28:43.578Z,23.35
2016-06-13T07:29:43.612Z,23.29
2016-06-13T07:30:43.599Z,23.39
2016-06-13T07:31:43.774Z,23.27
2016-06-13T07:32:43.495Z,23.32
2016-06-13T07:33:43.593Z,23.24
2016-06-13T07:34:43.501Z,23.32
2016-06-13T07:35:43.537Z,23.34
2016-06-13T07:36:43.430Z,23.31
2016-06-13T07:37:43.574Z,23.32
2016-06-13T07:38:43.577Z,23.35
2016-06-13T07:39:43.392Z,23.32
2016-06-13T07:40:43.473Z,23.34
2016-06-13T07:41:43.337Z,23.34
2016-06-13T07:42:43.167Z,23.29
2016-06-13T07:43:43.265Z,23.31
2016-06-13T07:44:43.455Z,23.32
2016-06-13T07:45:43.238Z,23.29
2016-06-13T07:46:43.163Z,23.32
2016-06-13T07:47:43.449Z,23.35
2016-06-13T07:48:43.405Z,23.29
2016-06-13T07:49:43.533Z,23.35
2016-06-13T07:50:43.176Z,23.38
2016-06-13T07:51:43.179Z,23.38
2016-06-13T07:52:43.307Z,23.35
2016-06-13T07:53:43.155Z,23.34
2016-06-13T07:54:43.079Z,23.38
2016-06-13T07:55:43.176Z,23.42
2016-06-13T07:56:43.070Z,23.43
2016-06-13T07:57:43.308Z,23.49
2016-06-13T07:58:43.013Z,23.45
2016-06-13T07:59:43.032Z,23.47
2016-06-13T08:00:42.942Z,23.43
2016-06-13T08:01:43.195Z,23.45
2016-06-13T08:02:42.948Z,23.5
2016-06-13T08:03:43.060Z,23.45
2016-06-13T08:04:42.860Z,23.45
2016-06-13T08:05:42.847Z,23.42
2016-06-13T08:06:42.991Z,23.47
2016-06-13T08:07:43.041Z,23.46
2016-06-13T08:08:43.044Z,23.49
2016-06-13T08:09:42.907Z,23.49
2016-06-13T08:10:42.940Z,23.42
2016-06-13T08:11:42.912Z,23.43
2016-06-13T08:12:42.588Z,23.46
2016-06-13T08:13:42.685Z,23.47
2016-06-13T08:14:42.890Z,23.49
2016-06-13T08:15:42.878Z,23.47
2016-06-13T08:16:42.880Z,23.46
2016-06-13T08:17:42.650Z,23.46
2016-06-13T08:18:42.715Z,23.46
2016-06-13T08:19:42.828Z,23.47
2016-06-13T08:20:42.393Z,23.39
2016-06-13T08:21:42.538Z,23.43
2016-06-13T08:22:42.884Z,23.42
2016-06-13T08:23:42.497Z,23.49
2016-06-13T08:24:42.687Z,23.42
2016-06-13T08:25:42.455Z,23.45
2016-06-13T08:26:42.490Z,23.49
2016-06-13T08:27:42.509Z,23.49
2016-06-13T08:28:42.120Z,23.52
2016-06-13T08:29:42.265Z,23.45
2016-06-13T08:30:42.346Z,23.45
2016-06-13T08:31:42.349Z,23.39
2016-06-13T08:32:42.368Z,23.47
2016-06-13T08:33:42.308Z,23.47
2016-06-13T08:34:45.608Z,23.46
2016-06-13T08:35:42.580Z,23.43
2016-06-13T08:36:42.318Z,23.42
2016-06-13T08:37:45.712Z,23.42
2016-06-13T08:38:42.387Z,23.46
2016-06-13T08:39:42.311Z,23.39
2016-06-13T08:40:42.205Z,23.42
2016-06-13T08:41:42.224Z,23.45
2016-06-13T08:42:42.523Z,23.42
2016-06-13T08:43:42.121Z,23.43
2016-06-13T08:44:42.077Z,23.31
2016-06-13T08:45:42.080Z,23.35
2016-06-13T08:46:42.036Z,23.38
2016-06-13T08:47:42.367Z,23.42
2016-06-13T08:48:42.089Z,23.34
2016-06-13T08:49:42.061Z,23.34
2016-06-13T08:50:41.813Z,23.4
2016-06-13T08:51:42.238Z,23.35
2016-06-13T08:52:45.227Z,23.42
2016-06-13T08:53:41.948Z,23.4
2016-06-13T08:54:41.997Z,23.39
2016-06-13T08:55:42.095Z,23.34
2016-06-13T08:56:41.832Z,23.32
2016-06-13T08:57:41.835Z,23.39
2016-06-13T08:58:41.823Z,23.31
2016-06-13T08:59:41.826Z,23.42
2016-06-13T09:00:41.907Z,23.46
2016-06-13T09:01:42.052Z,23.39
2016-06-13T09:02:41.975Z,23.45
2016-06-13T09:03:41.775Z,23.4
2016-06-13T09:04:41.716Z,23.46
2016-06-13T09:05:41.767Z,23.45
2016-06-13T09:06:41.769Z,23.45
2016-06-13T09:07:41.851Z,23.49
2016-06-13T09:08:41.682Z,23.45
2016-06-13T09:09:41.669Z,23.47
2016-06-13T09:10:41.579Z,23.4
2016-06-13T09:11:41.706Z,23.39
2016-06-13T09:12:42.225Z,23.35
2016-06-13T09:13:41.572Z,23.43
2016-06-13T09:14:41.512Z,23.46
2016-06-13T09:15:41.484Z,23.46
2016-06-13T09:16:41.738Z,23.42
2016-06-13T09:17:41.584Z,23.39
2016-06-13T09:18:41.415Z,23.49
2016-06-13T09:19:41.388Z,23.45
2016-06-13T09:20:41.375Z,23.47
2016-06-13T09:21:41.440Z,23.49
2016-06-13T09:22:41.366Z,23.46
2016-06-13T09:23:41.337Z,23.5
2016-06-13T09:24:41.308Z,23.5
2016-06-13T09:25:41.296Z,23.46
2016-06-13T09:26:41.393Z,23.49
2016-06-13T09:27:41.271Z,23.57
2016-06-13T09:28:41.649Z,23.52
2016-06-13T09:29:41.200Z,23.47
2016-06-13T09:30:41.186Z,23.46
2016-06-13T09:31:41.189Z,23.5
2016-06-13T09:32:41.350Z,23.52
2016-06-13T09:33:41.306Z,23.45
2016-06-13T09:34:41.106Z,23.57
2016-06-13T09:35:41.187Z,23.47
2016-06-13T09:36:41.064Z,23.55
2016-06-13T09:37:41.037Z,23.49
2016-06-13T09:38:41.055Z,23.5
2016-06-13T09:39:41.246Z,23.6
2016-06-13T09:40:41.217Z,23.47
2016-06-13T09:41:41.095Z,23.49
2016-06-13T09:42:40.958Z,23.52
2016-06-13T09:43:41.477Z,23.52
2016-06-13T09:44:41.059Z,23.6
2016-06-13T09:45:40.920Z,23.55
2016-06-13T09:46:40.985Z,23.47
2016-06-13T09:47:41.005Z,23.49
2016-06-13T09:48:40.930Z,23.47
2016-06-13T09:49:41.088Z,23.52
2016-06-13T09:50:41.092Z,23.47
2016-06-13T09:51:40.861Z,23.52
2016-06-13T09:52:40.754Z,23.52
2016-06-13T09:53:41.054Z,23.57
2016-06-13T09:54:40.854Z,23.52
2016-06-13T09:55:40.686Z,23.5
2016-06-13T09:56:40.704Z,23.55
2016-06-13T09:57:40.769Z,23.58
2016-06-13T09:58:40.805Z,23.58
2016-06-13T09:59:40.447Z,23.52
2016-06-13T10:00:40.607Z,23.55
2016-06-13T10:01:40.578Z,23.52
2016-06-13T10:02:40.785Z,23.5
2016-06-13T10:03:40.788Z,23.49
2016-06-13T10:04:40.806Z,23.47
2016-06-13T10:05:40.841Z,23.6
2016-06-13T10:06:40.641Z,23.52
2016-06-13T10:07:40.910Z,23.53
2016-06-13T10:08:40.694Z,23.47
2016-06-13T10:09:40.776Z,23.61
2016-06-13T10:10:40.856Z,23.57
2016-06-13T10:11:40.406Z,23.55
2016-06-13T10:12:40.863Z,23.61
2016-06-13T10:13:41.038Z,23.61
2016-06-13T10:14:40.337Z,23.6
2016-06-13T10:15:43.528Z,23.61
2016-06-13T10:16:40.500Z,23.47
2016-06-13T10:17:40.285Z,23.52
2016-06-13T10:18:40.272Z,23.58
2016-06-13T10:19:40.305Z,23.46
2016-06-13T10:20:40.247Z,23.49
2016-06-13T10:21:40.218Z,23.47
2016-06-13T10:22:40.175Z,23.49
2016-06-13T10:23:40.162Z,23.47
2016-06-13T10:24:40.135Z,23.46
2016-06-13T10:25:40.121Z,23.52
2016-06-13T10:26:40.093Z,23.52
2016-06-13T10:27:40.174Z,23.53
2016-06-13T10:28:40.522Z,23.5
2016-06-13T10:29:39.993Z,23.52
2016-06-13T10:30:40.089Z,23.49
2016-06-13T10:31:40.031Z,23.55
2016-06-13T10:32:40.002Z,23.53
2016-06-13T10:33:40.162Z,23.6
2016-06-13T10:34:40.008Z,23.6
2016-06-13T10:35:39.997Z,23.53
2016-06-13T10:36:39.905Z,23.58
2016-06-13T10:37:40.080Z,23.61
2016-06-13T10:38:39.880Z,23.61
2016-06-13T10:39:40.336Z,23.62
2016-06-13T10:40:40.245Z,23.57
2016-06-13T10:41:40.296Z,23.6
2016-06-13T10:42:40.283Z,23.58
2016-06-13T10:43:41.740Z,23.58
2016-06-13T10:44:40.195Z,23.68
2016-06-13T10:45:40.167Z,23.64
2016-06-13T10:46:40.061Z,23.7
2016-06-13T10:47:40.142Z,23.68
2016-06-13T10:48:40.130Z,23.76
2016-06-13T10:49:39.976Z,23.77
2016-06-13T10:50:40.026Z,23.77
2016-06-13T10:51:43.092Z,23.8
2016-06-13T10:52:40.032Z,23.8
2016-06-13T11:02:21.204Z,23.98
2016-06-13T11:03:21.285Z,23.92
2016-06-13T11:04:21.116Z,23.97
2016-06-13T11:05:21.072Z,24.05
2016-06-13T11:06:21.092Z,24.05
2016-06-13T11:07:21.079Z,24.07
2016-06-13T11:08:21.051Z,24.07
2016-06-13T11:09:21.023Z,24.1
2016-06-13T11:10:21.026Z,24.05
2016-06-13T11:11:20.966Z,24.1
2016-06-13T11:12:20.985Z,24.07
2016-06-13T11:13:21.800Z,24.07
2016-06-13T11:14:20.960Z,24.16
2016-06-13T11:15:20.775Z,24.13
2016-06-13T11:16:21.091Z,24.07
2016-06-13T11:17:20.875Z,24.16
2016-06-13T11:18:20.862Z,24.16
2016-06-13T11:19:20.850Z,24.13
2016-06-13T11:20:20.822Z,24.2
2016-06-13T11:21:20.638Z,24.22
2016-06-13T11:22:23.813Z,24.22
2016-06-13T11:23:20.987Z,24.26
2016-06-13T11:24:20.725Z,24.26
2016-06-13T11:25:20.712Z,24.23
2016-06-13T11:26:20.872Z,24.27
2016-06-13T11:27:20.812Z,24.34
2016-06-13T11:28:21.128Z,24.27
2016-06-13T11:29:20.927Z,24.2
2016-06-13T11:30:25.196Z,24.29
2016-06-13T11:31:20.746Z,24.24
2016-06-13T11:32:21.171Z,24.32
2016-06-13T11:33:21.096Z,24.27
2016-06-13T11:34:20.537Z,24.35
2016-06-13T11:35:20.884Z,24.27
2016-06-13T11:36:20.887Z,24.29
2016-06-13T11:37:20.702Z,24.29
2016-06-13T11:38:20.487Z,24.26
2016-06-13T11:39:20.552Z,24.27
2016-06-13T11:40:20.727Z,24.31
2016-06-13T11:41:20.418Z,24.23
2016-06-13T11:42:20.452Z,24.32
2016-06-13T11:43:20.830Z,24.27
2016-06-13T11:44:20.834Z,24.29
2016-06-13T11:45:20.477Z,24.26
2016-06-13T11:46:20.417Z,24.29
2016-06-13T11:47:20.529Z,24.27
2016-06-13T11:48:20.314Z,24.38
2016-06-13T11:49:20.145Z,24.35
2016-06-13T11:50:20.413Z,24.44
2016-06-13T11:51:20.261Z,24.34
2016-06-13T11:52:20.202Z,24.44
2016-06-13T11:53:20.267Z,24.45
2016-06-13T11:54:20.301Z,24.42
2016-06-13T11:55:20.351Z,24.42
2016-06-13T11:56:20.229Z,24.45
2016-06-13T11:57:20.108Z,24.47
2016-06-13T11:58:20.673Z,24.39
2016-06-13T11:59:20.769Z,24.44
2016-06-13T12:00:20.226Z,24.42
2016-06-13T12:01:20.058Z,24.41
2016-06-13T12:02:20.029Z,24.49
2016-06-13T12:03:20.110Z,24.49
2016-06-13T12:04:20.160Z,24.47
2016-06-13T12:05:20.319Z,24.47
2016-06-13T12:06:20.369Z,24.49
2016-06-13T12:07:20.263Z,24.54
2016-06-13T12:08:20.079Z,24.54
2016-06-13T12:09:20.144Z,24.54
2016-06-13T12:10:19.913Z,24.53
2016-06-13T12:11:19.853Z,24.6
2016-06-13T12:12:20.044Z,24.64
2016-06-13T12:13:21.375Z,24.56
2016-06-13T12:14:19.831Z,24.6
2016-06-13T12:15:19.819Z,24.64
2016-06-13T12:16:20.165Z,24.6
2016-06-13T12:17:19.934Z,24.57
2016-06-13T12:18:20.110Z,24.61
2016-06-13T12:19:20.081Z,24.67
2016-06-13T12:20:19.897Z,24.64
2016-06-13T12:21:19.962Z,24.6
2016-06-13T12:22:19.825Z,24.57
2016-06-13T12:23:19.968Z,24.6
2016-06-13T12:24:19.784Z,24.63
2016-06-13T12:25:19.475Z,24.63
2016-06-13T12:26:19.649Z,24.69
2016-06-13T12:27:19.668Z,24.6
2016-06-13T12:28:19.688Z,24.6
2016-06-13T12:29:19.737Z,24.71
2016-06-13T12:30:19.584Z,24.75
2016-06-13T12:31:19.758Z,24.69
2016-06-13T12:32:19.590Z,24.75
2016-06-13T12:33:19.530Z,24.77
2016-06-13T12:34:19.653Z,24.77
2016-06-13T12:35:22.822Z,24.64
2016-06-13T12:36:19.927Z,24.69
2016-06-13T12:37:19.862Z,24.71
2016-06-13T12:38:19.775Z,24.69
2016-06-13T12:39:19.793Z,24.73
2016-06-13T12:40:19.811Z,24.71
2016-06-13T12:41:19.564Z,24.76
2016-06-13T12:42:19.535Z,24.79
2016-06-13T12:43:19.545Z,24.77
2016-06-13T12:44:19.568Z,24.85
2016-06-13T12:45:19.514Z,24.71
2016-06-13T12:46:19.928Z,24.76
2016-06-13T12:47:19.655Z,24.71
2016-06-13T12:48:19.630Z,24.73
2016-06-13T12:49:19.619Z,24.69
2016-06-13T12:50:19.655Z,24.75
2016-06-13T12:51:19.707Z,24.69
2016-06-13T12:52:19.556Z,24.71
2016-06-13T12:53:19.544Z,24.77
2016-06-13T12:54:19.658Z,24.69
2016-06-13T12:55:19.615Z,24.61
2016-06-13T12:56:28.290Z,24.67
2016-06-13T12:57:19.716Z,24.61
2016-06-13T12:58:20.376Z,24.69
2016-06-13T12:59:19.582Z,24.6
2016-06-13T13:00:22.555Z,24.67
2016-06-13T13:01:19.245Z,24.68
2016-06-13T13:02:19.280Z,24.67
2016-06-13T13:03:19.532Z,24.6
2016-06-13T13:04:19.771Z,24.63